sensor_id;sensor_type;location;lat;lon;timestamp;temperature;humidity
31309;DHT22;17936;52.446;10.840;2022-10-30T00:01:20;13.60;99.90
31309;DHT22;17936;52.446;10.840;2022-10-30T00:03:45;13.40;99.90
31309;DHT22;17936;52.446;10.840;2022-10-30T00:06:10;13.50;99.90
31309;DHT22;17936;52.446;10.840;2022-10-30T00:08:36;13.50;99.90
31309;DHT22;17936;52.446;10.840;2022-10-30T00:11:10;13.50;99.90
31309;DHT22;17936;52.446;10.840;2022-10-30T00:13:36;13.50;99.90
31309;DHT22;17936;52.446;10.840;2022-10-30T00:16:05;13.50;99.90
31309;DHT22;17936;52.446;10.840;2022-10-30T00:18:31;13.50;99.90
31309;DHT22;17936;52.446;10.840;2022-10-30T00:20:56;13.50;99.90
31309;DHT22;17936;52.446;10.840;2022-10-30T00:23:22;13.30;99.90
31309;DHT22;17936;52.446;10.840;2022-10-30T00:25:47;13.30;99.90
31309;DHT22;17936;52.446;10.840;2022-10-30T00:28:13;13.40;99.90
31309;DHT22;17936;52.446;10.840;2022-10-30T00:30:38;13.40;99.90
31309;DHT22;17936;52.446;10.840;2022-10-30T00:33:04;13.20;99.90
31309;DHT22;17936;52.446;10.840;2022-10-30T00:35:30;13.20;99.90
31309;DHT22;17936;52.446;10.840;2022-10-30T00:37:55;13.20;99.90
31309;DHT22;17936;52.446;10.840;2022-10-30T00:40:22;13.30;99.90
31309;DHT22;17936;52.446;10.840;2022-10-30T00:42:48;13.30;99.90
31309;DHT22;17936;52.446;10.840;2022-10-30T00:45:15;13.30;99.90
31309;DHT22;17936;52.446;10.840;2022-10-30T00:47:53;13.40;99.90
31309;DHT22;17936;52.446;10.840;2022-10-30T00:50:25;13.40;99.90
31309;DHT22;17936;52.446;10.840;2022-10-30T00:52:53;13.30;99.90
31309;DHT22;17936;52.446;10.840;2022-10-30T00:55:34;13.30;99.90
31309;DHT22;17936;52.446;10.840;2022-10-30T00:58:05;13.20;99.90
31309;DHT22;17936;52.446;10.840;2022-10-30T01:00:32;13.30;99.90
31309;DHT22;17936;52.446;10.840;2022-10-30T01:02:59;13.40;99.90
31309;DHT22;17936;52.446;10.840;2022-10-30T01:05:27;13.40;99.90
31309;DHT22;17936;52.446;10.840;2022-10-30T01:07:54;13.50;99.90
31309;DHT22;17936;52.446;10.840;2022-10-30T01:10:20;13.40;99.90
31309;DHT22;17936;52.446;10.840;2022-10-30T01:12:48;13.50;99.90
31309;DHT22;17936;52.446;10.840;2022-10-30T01:15:14;13.50;99.90
31309;DHT22;17936;52.446;10.840;2022-10-30T01:17:54;13.50;99.90
31309;DHT22;17936;52.446;10.840;2022-10-30T01:23:16;13.50;99.90
31309;DHT22;17936;52.446;10.840;2022-10-30T01:26:16;13.50;99.90
31309;DHT22;17936;52.446;10.840;2022-10-30T01:29:11;13.50;99.90
31309;DHT22;17936;52.446;10.840;2022-10-30T01:31:47;13.40;99.90
31309;DHT22;17936;52.446;10.840;2022-10-30T01:34:24;13.50;99.90
31309;DHT22;17936;52.446;10.840;2022-10-30T01:36:58;13.40;99.90
31309;DHT22;17936;52.446;10.840;2022-10-30T01:39:25;13.30;99.90
31309;DHT22;17936;52.446;10.840;2022-10-30T01:41:52;13.30;99.90
31309;DHT22;17936;52.446;10.840;2022-10-30T01:44:29;13.30;99.90
31309;DHT22;17936;52.446;10.840;2022-10-30T01:47:21;13.30;99.90
31309;DHT22;17936;52.446;10.840;2022-10-30T01:50:12;13.30;99.90
31309;DHT22;17936;52.446;10.840;2022-10-30T01:53:08;13.30;99.90
31309;DHT22;17936;52.446;10.840;2022-10-30T02:01:12;13.50;99.90
31309;DHT22;17936;52.446;10.840;2022-10-30T02:03:38;13.50;99.90
31309;DHT22;17936;52.446;10.840;2022-10-30T02:06:04;13.60;99.90
31309;DHT22;17936;52.446;10.840;2022-10-30T02:08:29;13.70;99.90
31309;DHT22;17936;52.446;10.840;2022-10-30T02:10:55;13.60;99.90
31309;DHT22;17936;52.446;10.840;2022-10-30T02:13:22;13.50;99.90
31309;DHT22;17936;52.446;10.840;2022-10-30T02:15:48;13.50;99.90
31309;DHT22;17936;52.446;10.840;2022-10-30T02:18:14;13.60;99.90
31309;DHT22;17936;52.446;10.840;2022-10-30T02:20:39;13.50;99.90
31309;DHT22;17936;52.446;10.840;2022-10-30T02:23:05;13.60;99.90
31309;DHT22;17936;52.446;10.840;2022-10-30T02:25:31;13.70;99.90
31309;DHT22;17936;52.446;10.840;2022-10-30T02:27:56;13.40;99.90
31309;DHT22;17936;52.446;10.840;2022-10-30T02:30:22;13.40;99.90
31309;DHT22;17936;52.446;10.840;2022-10-30T02:32:47;13.50;99.90
31309;DHT22;17936;52.446;10.840;2022-10-30T02:35:13;13.50;99.90
31309;DHT22;17936;52.446;10.840;2022-10-30T02:37:38;13.40;99.90
31309;DHT22;17936;52.446;10.840;2022-10-30T02:40:04;13.50;99.90
31309;DHT22;17936;52.446;10.840;2022-10-30T02:42:32;13.40;99.90
31309;DHT22;17936;52.446;10.840;2022-10-30T02:44:58;13.20;99.90
31309;DHT22;17936;52.446;10.840;2022-10-30T02:47:23;13.20;99.90
31309;DHT22;17936;52.446;10.840;2022-10-30T02:49:49;13.30;99.90
31309;DHT22;17936;52.446;10.840;2022-10-30T02:52:14;13.20;99.90
31309;DHT22;17936;52.446;10.840;2022-10-30T02:54:40;13.30;99.90
31309;DHT22;17936;52.446;10.840;2022-10-30T02:57:05;13.20;99.90
31309;DHT22;17936;52.446;10.840;2022-10-30T02:59:31;13.10;99.90
31309;DHT22;17936;52.446;10.840;2022-10-30T03:01:56;13.10;99.90
31309;DHT22;17936;52.446;10.840;2022-10-30T03:04:22;13.00;99.90
31309;DHT22;17936;52.446;10.840;2022-10-30T03:06:47;13.10;99.90
31309;DHT22;17936;52.446;10.840;2022-10-30T03:09:13;13.10;99.90
31309;DHT22;17936;52.446;10.840;2022-10-30T03:11:39;13.00;99.90
31309;DHT22;17936;52.446;10.840;2022-10-30T03:14:04;13.00;99.90
31309;DHT22;17936;52.446;10.840;2022-10-30T03:16:30;12.80;99.90
31309;DHT22;17936;52.446;10.840;2022-10-30T03:18:56;12.90;99.90
31309;DHT22;17936;52.446;10.840;2022-10-30T03:21:24;12.80;99.90
31309;DHT22;17936;52.446;10.840;2022-10-30T03:23:50;12.80;99.90
31309;DHT22;17936;52.446;10.840;2022-10-30T03:26:16;12.90;99.90
31309;DHT22;17936;52.446;10.840;2022-10-30T03:28:42;12.90;99.90
31309;DHT22;17936;52.446;10.840;2022-10-30T03:31:10;12.80;99.90
31309;DHT22;17936;52.446;10.840;2022-10-30T03:33:36;12.80;99.90
31309;DHT22;17936;52.446;10.840;2022-10-30T03:36:03;12.80;99.90
31309;DHT22;17936;52.446;10.840;2022-10-30T03:38:29;12.70;99.90
31309;DHT22;17936;52.446;10.840;2022-10-30T03:40:55;12.70;99.90
31309;DHT22;17936;52.446;10.840;2022-10-30T03:43:21;12.70;99.90
31309;DHT22;17936;52.446;10.840;2022-10-30T03:45:54;12.60;99.90
31309;DHT22;17936;52.446;10.840;2022-10-30T03:48:22;12.40;99.90
31309;DHT22;17936;52.446;10.840;2022-10-30T03:50:48;12.40;99.90
31309;DHT22;17936;52.446;10.840;2022-10-30T03:53:14;12.40;99.90
31309;DHT22;17936;52.446;10.840;2022-10-30T03:55:39;12.20;99.90
31309;DHT22;17936;52.446;10.840;2022-10-30T03:58:06;12.30;99.90
31309;DHT22;17936;52.446;10.840;2022-10-30T04:00:32;12.30;99.90
31309;DHT22;17936;52.446;10.840;2022-10-30T04:02:57;12.30;99.90
31309;DHT22;17936;52.446;10.840;2022-10-30T04:05:23;12.40;99.90
31309;DHT22;17936;52.446;10.840;2022-10-30T04:07:55;12.40;99.90
31309;DHT22;17936;52.446;10.840;2022-10-30T04:10:21;12.30;99.90
31309;DHT22;17936;52.446;10.840;2022-10-30T04:12:46;12.40;99.90
31309;DHT22;17936;52.446;10.840;2022-10-30T04:15:12;12.40;99.90
31309;DHT22;17936;52.446;10.840;2022-10-30T04:17:37;12.20;99.90
31309;DHT22;17936;52.446;10.840;2022-10-30T04:20:03;12.20;99.90
31309;DHT22;17936;52.446;10.840;2022-10-30T04:22:28;12.20;99.90
31309;DHT22;17936;52.446;10.840;2022-10-30T04:24:54;12.20;99.90
31309;DHT22;17936;52.446;10.840;2022-10-30T04:27:19;12.10;99.90
31309;DHT22;17936;52.446;10.840;2022-10-30T04:29:45;12.20;99.90
31309;DHT22;17936;52.446;10.840;2022-10-30T04:32:11;12.00;99.90
31309;DHT22;17936;52.446;10.840;2022-10-30T04:34:37;12.00;99.90
31309;DHT22;17936;52.446;10.840;2022-10-30T04:37:06;12.10;99.90
31309;DHT22;17936;52.446;10.840;2022-10-30T04:39:32;12.00;99.90
31309;DHT22;17936;52.446;10.840;2022-10-30T04:41:57;12.00;99.90
31309;DHT22;17936;52.446;10.840;2022-10-30T04:44:23;12.10;99.90
31309;DHT22;17936;52.446;10.840;2022-10-30T04:46:48;12.00;99.90
31309;DHT22;17936;52.446;10.840;2022-10-30T04:49:14;12.10;99.90
31309;DHT22;17936;52.446;10.840;2022-10-30T04:51:39;12.10;99.90
31309;DHT22;17936;52.446;10.840;2022-10-30T04:54:04;12.20;99.90
31309;DHT22;17936;52.446;10.840;2022-10-30T04:56:30;12.10;99.90
31309;DHT22;17936;52.446;10.840;2022-10-30T04:58:57;12.00;99.90
31309;DHT22;17936;52.446;10.840;2022-10-30T05:01:23;12.10;99.90
31309;DHT22;17936;52.446;10.840;2022-10-30T05:03:48;12.10;99.90
31309;DHT22;17936;52.446;10.840;2022-10-30T05:06:25;12.00;99.90
31309;DHT22;17936;52.446;10.840;2022-10-30T05:08:51;12.00;99.90
31309;DHT22;17936;52.446;10.840;2022-10-30T05:11:17;12.10;99.90
31309;DHT22;17936;52.446;10.840;2022-10-30T05:13:43;12.00;99.90
31309;DHT22;17936;52.446;10.840;2022-10-30T05:16:08;12.10;99.90
31309;DHT22;17936;52.446;10.840;2022-10-30T05:18:34;12.00;99.90
31309;DHT22;17936;52.446;10.840;2022-10-30T05:21:00;11.90;99.90
31309;DHT22;17936;52.446;10.840;2022-10-30T05:23:25;11.90;99.90
31309;DHT22;17936;52.446;10.840;2022-10-30T05:25:51;11.80;99.90
31309;DHT22;17936;52.446;10.840;2022-10-30T05:28:16;11.90;99.90
31309;DHT22;17936;52.446;10.840;2022-10-30T05:30:42;11.80;99.90
31309;DHT22;17936;52.446;10.840;2022-10-30T05:33:10;11.90;99.90
31309;DHT22;17936;52.446;10.840;2022-10-30T05:35:36;11.90;99.90
31309;DHT22;17936;52.446;10.840;2022-10-30T05:38:04;11.90;99.90
31309;DHT22;17936;52.446;10.840;2022-10-30T05:40:31;12.00;99.90
31309;DHT22;17936;52.446;10.840;2022-10-30T05:42:57;11.80;99.90
31309;DHT22;17936;52.446;10.840;2022-10-30T05:45:22;11.90;99.90
31309;DHT22;17936;52.446;10.840;2022-10-30T05:47:58;11.90;99.90
31309;DHT22;17936;52.446;10.840;2022-10-30T05:50:26;11.90;99.90
31309;DHT22;17936;52.446;10.840;2022-10-30T05:52:59;11.90;99.90
31309;DHT22;17936;52.446;10.840;2022-10-30T05:55:26;11.80;99.90
31309;DHT22;17936;52.446;10.840;2022-10-30T05:57:59;11.70;99.90
31309;DHT22;17936;52.446;10.840;2022-10-30T06:00:25;11.70;99.90
31309;DHT22;17936;52.446;10.840;2022-10-30T06:02:51;11.60;99.90
31309;DHT22;17936;52.446;10.840;2022-10-30T06:05:16;11.50;99.90
31309;DHT22;17936;52.446;10.840;2022-10-30T06:07:42;11.60;99.90
31309;DHT22;17936;52.446;10.840;2022-10-30T06:10:08;11.50;99.90
31309;DHT22;17936;52.446;10.840;2022-10-30T06:12:33;11.50;99.90
31309;DHT22;17936;52.446;10.840;2022-10-30T06:14:59;11.50;99.90
31309;DHT22;17936;52.446;10.840;2022-10-30T06:17:24;11.50;99.90
31309;DHT22;17936;52.446;10.840;2022-10-30T06:19:50;11.50;99.90
31309;DHT22;17936;52.446;10.840;2022-10-30T06:22:15;11.60;99.90
31309;DHT22;17936;52.446;10.840;2022-10-30T06:24:41;11.60;99.90
31309;DHT22;17936;52.446;10.840;2022-10-30T06:27:06;11.60;99.90
31309;DHT22;17936;52.446;10.840;2022-10-30T06:29:32;11.60;99.90
31309;DHT22;17936;52.446;10.840;2022-10-30T06:31:57;11.60;99.90
31309;DHT22;17936;52.446;10.840;2022-10-30T06:34:23;11.60;99.90
31309;DHT22;17936;52.446;10.840;2022-10-30T06:36:50;11.50;99.90
31309;DHT22;17936;52.446;10.840;2022-10-30T06:39:15;11.50;99.90
31309;DHT22;17936;52.446;10.840;2022-10-30T06:41:41;11.40;99.90
31309;DHT22;17936;52.446;10.840;2022-10-30T06:44:06;11.50;99.90
31309;DHT22;17936;52.446;10.840;2022-10-30T06:46:31;11.40;99.90
31309;DHT22;17936;52.446;10.840;2022-10-30T06:48:57;11.60;99.90
31309;DHT22;17936;52.446;10.840;2022-10-30T06:51:23;11.70;99.90
31309;DHT22;17936;52.446;10.840;2022-10-30T06:53:48;11.80;99.90
31309;DHT22;17936;52.446;10.840;2022-10-30T06:56:14;11.90;99.90
31309;DHT22;17936;52.446;10.840;2022-10-30T06:58:39;11.90;99.90
31309;DHT22;17936;52.446;10.840;2022-10-30T07:01:05;12.10;99.90
31309;DHT22;17936;52.446;10.840;2022-10-30T07:03:31;12.20;99.90
31309;DHT22;17936;52.446;10.840;2022-10-30T07:05:57;12.30;99.90
31309;DHT22;17936;52.446;10.840;2022-10-30T07:08:22;12.50;99.90
31309;DHT22;17936;52.446;10.840;2022-10-30T07:10:48;12.60;99.90
31309;DHT22;17936;52.446;10.840;2022-10-30T07:13:14;12.60;99.90
31309;DHT22;17936;52.446;10.840;2022-10-30T07:15:39;12.70;99.90
31309;DHT22;17936;52.446;10.840;2022-10-30T07:18:05;12.60;99.90
31309;DHT22;17936;52.446;10.840;2022-10-30T07:20:32;13.00;99.90
31309;DHT22;17936;52.446;10.840;2022-10-30T07:22:58;13.10;99.90
31309;DHT22;17936;52.446;10.840;2022-10-30T07:25:24;13.10;99.90
31309;DHT22;17936;52.446;10.840;2022-10-30T07:27:51;13.20;99.90
31309;DHT22;17936;52.446;10.840;2022-10-30T07:30:19;13.60;99.90
31309;DHT22;17936;52.446;10.840;2022-10-30T07:32:44;13.50;99.90
31309;DHT22;17936;52.446;10.840;2022-10-30T07:35:12;13.70;99.90
31309;DHT22;17936;52.446;10.840;2022-10-30T07:37:39;14.10;99.90
31309;DHT22;17936;52.446;10.840;2022-10-30T07:40:05;14.20;99.90
31309;DHT22;17936;52.446;10.840;2022-10-30T07:42:32;14.10;99.90
31309;DHT22;17936;52.446;10.840;2022-10-30T07:44:58;14.10;99.90
31309;DHT22;17936;52.446;10.840;2022-10-30T07:47:23;14.40;99.90
31309;DHT22;17936;52.446;10.840;2022-10-30T07:49:49;14.40;99.90
31309;DHT22;17936;52.446;10.840;2022-10-30T07:52:14;14.80;99.90
31309;DHT22;17936;52.446;10.840;2022-10-30T07:54:40;15.20;99.90
31309;DHT22;17936;52.446;10.840;2022-10-30T07:57:05;15.00;99.90
31309;DHT22;17936;52.446;10.840;2022-10-30T07:59:31;15.50;99.90
31309;DHT22;17936;52.446;10.840;2022-10-30T08:01:56;15.90;99.90
31309;DHT22;17936;52.446;10.840;2022-10-30T08:04:22;16.40;99.90
31309;DHT22;17936;52.446;10.840;2022-10-30T08:06:47;16.50;99.90
31309;DHT22;17936;52.446;10.840;2022-10-30T08:09:13;16.50;99.90
31309;DHT22;17936;52.446;10.840;2022-10-30T08:11:38;17.00;99.90
31309;DHT22;17936;52.446;10.840;2022-10-30T08:14:04;16.80;99.90
31309;DHT22;17936;52.446;10.840;2022-10-30T08:16:29;16.50;99.90
31309;DHT22;17936;52.446;10.840;2022-10-30T08:18:55;17.00;99.90
31309;DHT22;17936;52.446;10.840;2022-10-30T08:21:20;17.50;99.90
31309;DHT22;17936;52.446;10.840;2022-10-30T08:23:46;17.80;99.90
31309;DHT22;17936;52.446;10.840;2022-10-30T08:26:12;18.10;99.90
31309;DHT22;17936;52.446;10.840;2022-10-30T08:28:38;17.80;99.90
31309;DHT22;17936;52.446;10.840;2022-10-30T08:31:04;18.10;99.90
31309;DHT22;17936;52.446;10.840;2022-10-30T08:33:30;18.60;99.90
31309;DHT22;17936;52.446;10.840;2022-10-30T08:35:57;18.50;99.90
31309;DHT22;17936;52.446;10.840;2022-10-30T08:38:23;18.20;99.90
31309;DHT22;17936;52.446;10.840;2022-10-30T08:40:50;18.40;99.90
31309;DHT22;17936;52.446;10.840;2022-10-30T08:43:15;18.30;99.90
31309;DHT22;17936;52.446;10.840;2022-10-30T08:45:41;18.20;99.90
31309;DHT22;17936;52.446;10.840;2022-10-30T08:48:10;18.30;99.90
31309;DHT22;17936;52.446;10.840;2022-10-30T08:50:36;18.50;99.90
31309;DHT22;17936;52.446;10.840;2022-10-30T08:53:05;18.80;99.90
31309;DHT22;17936;52.446;10.840;2022-10-30T08:55:31;19.10;99.90
31309;DHT22;17936;52.446;10.840;2022-10-30T08:57:57;18.90;99.90
31309;DHT22;17936;52.446;10.840;2022-10-30T09:00:23;18.90;99.90
31309;DHT22;17936;52.446;10.840;2022-10-30T09:02:49;18.80;99.90
31309;DHT22;17936;52.446;10.840;2022-10-30T09:05:14;18.80;99.90
31309;DHT22;17936;52.446;10.840;2022-10-30T09:07:40;19.10;99.90
31309;DHT22;17936;52.446;10.840;2022-10-30T09:10:06;19.10;99.90
31309;DHT22;17936;52.446;10.840;2022-10-30T09:12:31;19.20;99.90
31309;DHT22;17936;52.446;10.840;2022-10-30T09:14:57;19.60;99.90
31309;DHT22;17936;52.446;10.840;2022-10-30T09:17:22;19.70;99.90
31309;DHT22;17936;52.446;10.840;2022-10-30T09:19:48;19.70;99.90
31309;DHT22;17936;52.446;10.840;2022-10-30T09:22:13;19.60;99.90
31309;DHT22;17936;52.446;10.840;2022-10-30T09:24:39;19.70;99.90
31309;DHT22;17936;52.446;10.840;2022-10-30T09:27:05;19.70;99.90
31309;DHT22;17936;52.446;10.840;2022-10-30T09:29:31;19.80;99.90
31309;DHT22;17936;52.446;10.840;2022-10-30T09:31:57;19.80;99.90
31309;DHT22;17936;52.446;10.840;2022-10-30T09:34:23;20.30;99.90
31309;DHT22;17936;52.446;10.840;2022-10-30T09:36:49;20.10;99.90
31309;DHT22;17936;52.446;10.840;2022-10-30T09:39:17;20.30;99.90
31309;DHT22;17936;52.446;10.840;2022-10-30T09:41:47;20.30;99.90
31309;DHT22;17936;52.446;10.840;2022-10-30T09:44:35;20.30;99.90
31309;DHT22;17936;52.446;10.840;2022-10-30T09:47:18;20.50;99.90
31309;DHT22;17936;52.446;10.840;2022-10-30T09:52:49;20.50;99.90
31309;DHT22;17936;52.446;10.840;2022-10-30T09:55:29;20.80;99.90
31309;DHT22;17936;52.446;10.840;2022-10-30T09:58:03;20.90;99.90
31309;DHT22;17936;52.446;10.840;2022-10-30T10:00:37;20.90;99.90
31309;DHT22;17936;52.446;10.840;2022-10-30T10:06:11;21.40;99.90
31309;DHT22;17936;52.446;10.840;2022-10-30T10:09:05;21.30;99.90
31309;DHT22;17936;52.446;10.840;2022-10-30T10:11:36;21.30;99.90
31309;DHT22;17936;52.446;10.840;2022-10-30T10:14:17;21.30;99.90
31309;DHT22;17936;52.446;10.840;2022-10-30T10:16:49;21.50;99.90
31309;DHT22;17936;52.446;10.840;2022-10-30T10:19:20;21.50;99.90
31309;DHT22;17936;52.446;10.840;2022-10-30T10:21:57;21.60;99.90
31309;DHT22;17936;52.446;10.840;2022-10-30T10:24:30;21.70;99.90
31309;DHT22;17936;52.446;10.840;2022-10-30T10:30:08;21.80;99.90
31309;DHT22;17936;52.446;10.840;2022-10-30T10:38:53;22.00;99.90
31309;DHT22;17936;52.446;10.840;2022-10-30T10:50:24;22.10;99.90
31309;DHT22;17936;52.446;10.840;2022-10-30T10:52:52;22.20;99.90
31309;DHT22;17936;52.446;10.840;2022-10-30T10:55:27;22.30;99.90
31309;DHT22;17936;52.446;10.840;2022-10-30T10:57:56;22.30;99.90
31309;DHT22;17936;52.446;10.840;2022-10-30T11:00:22;22.30;99.90
31309;DHT22;17936;52.446;10.840;2022-10-30T11:03:14;22.20;99.90
31309;DHT22;17936;52.446;10.840;2022-10-30T11:06:11;22.30;99.90
31309;DHT22;17936;52.446;10.840;2022-10-30T11:08:39;22.50;99.90
31309;DHT22;17936;52.446;10.840;2022-10-30T11:11:05;22.60;99.90
31309;DHT22;17936;52.446;10.840;2022-10-30T11:13:42;22.30;99.90
31309;DHT22;17936;52.446;10.840;2022-10-30T11:16:36;22.30;99.90
31309;DHT22;17936;52.446;10.840;2022-10-30T11:19:07;22.40;99.90
31309;DHT22;17936;52.446;10.840;2022-10-30T11:21:43;22.50;99.90
31309;DHT22;17936;52.446;10.840;2022-10-30T11:26:52;22.60;99.90
31309;DHT22;17936;52.446;10.840;2022-10-30T11:29:22;22.90;99.90
31309;DHT22;17936;52.446;10.840;2022-10-30T11:32:02;23.00;99.90
31309;DHT22;17936;52.446;10.840;2022-10-30T11:34:34;22.90;99.90
31309;DHT22;17936;52.446;10.840;2022-10-30T11:37:00;22.90;99.90
31309;DHT22;17936;52.446;10.840;2022-10-30T11:39:32;22.90;99.90
31309;DHT22;17936;52.446;10.840;2022-10-30T11:42:02;22.80;99.90
31309;DHT22;17936;52.446;10.840;2022-10-30T11:44:41;22.70;99.90
31309;DHT22;17936;52.446;10.840;2022-10-30T11:47:08;22.70;99.90
31309;DHT22;17936;52.446;10.840;2022-10-30T11:52:09;22.50;99.90
31309;DHT22;17936;52.446;10.840;2022-10-30T11:54:38;22.60;99.90
31309;DHT22;17936;52.446;10.840;2022-10-30T11:57:18;22.60;99.90
31309;DHT22;17936;52.446;10.840;2022-10-30T11:59:46;22.90;99.90
31309;DHT22;17936;52.446;10.840;2022-10-30T12:02:28;22.70;99.90
31309;DHT22;17936;52.446;10.840;2022-10-30T12:05:00;22.70;99.90
31309;DHT22;17936;52.446;10.840;2022-10-30T12:07:30;22.80;99.90
31309;DHT22;17936;52.446;10.840;2022-10-30T12:09:55;22.70;99.90
31309;DHT22;17936;52.446;10.840;2022-10-30T12:12:40;22.70;99.90
31309;DHT22;17936;52.446;10.840;2022-10-30T12:15:09;22.90;99.90
31309;DHT22;17936;52.446;10.840;2022-10-30T12:17:37;22.70;99.90
31309;DHT22;17936;52.446;10.840;2022-10-30T12:20:04;22.70;99.90
31309;DHT22;17936;52.446;10.840;2022-10-30T12:22:32;22.80;99.90
31309;DHT22;17936;52.446;10.840;2022-10-30T12:25:05;22.60;99.90
31309;DHT22;17936;52.446;10.840;2022-10-30T12:27:35;22.70;99.90
31309;DHT22;17936;52.446;10.840;2022-10-30T12:30:06;22.50;99.90
31309;DHT22;17936;52.446;10.840;2022-10-30T12:32:50;22.50;99.90
31309;DHT22;17936;52.446;10.840;2022-10-30T12:35:39;22.70;99.90
31309;DHT22;17936;52.446;10.840;2022-10-30T12:38:24;22.80;99.90
31309;DHT22;17936;52.446;10.840;2022-10-30T12:41:06;22.90;99.90
31309;DHT22;17936;52.446;10.840;2022-10-30T12:43:34;22.90;99.90
31309;DHT22;17936;52.446;10.840;2022-10-30T12:46:14;22.70;99.90
31309;DHT22;17936;52.446;10.840;2022-10-30T12:48:46;22.70;99.90
31309;DHT22;17936;52.446;10.840;2022-10-30T12:51:34;22.90;99.90
31309;DHT22;17936;52.446;10.840;2022-10-30T12:54:21;22.70;99.90
31309;DHT22;17936;52.446;10.840;2022-10-30T12:56:52;22.90;99.90
31309;DHT22;17936;52.446;10.840;2022-10-30T12:59:31;22.70;99.90
31309;DHT22;17936;52.446;10.840;2022-10-30T13:02:19;22.70;99.90
31309;DHT22;17936;52.446;10.840;2022-10-30T13:04:51;23.00;99.90
31309;DHT22;17936;52.446;10.840;2022-10-30T13:07:37;22.90;99.90
31309;DHT22;17936;52.446;10.840;2022-10-30T13:10:36;22.90;99.90
31309;DHT22;17936;52.446;10.840;2022-10-30T13:13:10;23.00;99.90
31309;DHT22;17936;52.446;10.840;2022-10-30T13:15:43;23.00;99.90
31309;DHT22;17936;52.446;10.840;2022-10-30T13:18:18;22.80;99.90
31309;DHT22;17936;52.446;10.840;2022-10-30T13:23:36;22.60;99.90
31309;DHT22;17936;52.446;10.840;2022-10-30T13:26:27;22.70;99.90
31309;DHT22;17936;52.446;10.840;2022-10-30T13:32:03;22.80;99.90
31309;DHT22;17936;52.446;10.840;2022-10-30T13:34:47;23.20;99.90
31309;DHT22;17936;52.446;10.840;2022-10-30T13:37:29;23.00;99.90
31309;DHT22;17936;52.446;10.840;2022-10-30T13:40:18;22.70;99.90
31309;DHT22;17936;52.446;10.840;2022-10-30T13:42:48;22.60;99.90
31309;DHT22;17936;52.446;10.840;2022-10-30T13:45:59;22.70;99.90
31309;DHT22;17936;52.446;10.840;2022-10-30T13:51:47;22.80;99.90
31309;DHT22;17936;52.446;10.840;2022-10-30T13:54:20;22.80;99.90
31309;DHT22;17936;52.446;10.840;2022-10-30T13:56:47;22.70;99.90
31309;DHT22;17936;52.446;10.840;2022-10-30T13:59:25;22.80;99.90
31309;DHT22;17936;52.446;10.840;2022-10-30T14:04:56;22.60;99.90
31309;DHT22;17936;52.446;10.840;2022-10-30T14:07:31;22.40;99.90
31309;DHT22;17936;52.446;10.840;2022-10-30T14:13:02;22.60;99.90
31309;DHT22;17936;52.446;10.840;2022-10-30T14:20:40;22.50;99.90
31309;DHT22;17936;52.446;10.840;2022-10-30T14:23:11;22.70;99.90
31309;DHT22;17936;52.446;10.840;2022-10-30T14:25:37;22.50;99.90
31309;DHT22;17936;52.446;10.840;2022-10-30T14:28:03;22.50;99.90
31309;DHT22;17936;52.446;10.840;2022-10-30T14:30:29;22.60;99.90
31309;DHT22;17936;52.446;10.840;2022-10-30T14:32:57;22.40;99.90
31309;DHT22;17936;52.446;10.840;2022-10-30T14:35:31;22.30;99.90
31309;DHT22;17936;52.446;10.840;2022-10-30T14:38:14;22.20;99.90
31309;DHT22;17936;52.446;10.840;2022-10-30T14:40:46;21.90;99.90
31309;DHT22;17936;52.446;10.840;2022-10-30T14:43:33;21.70;99.90
31309;DHT22;17936;52.446;10.840;2022-10-30T14:46:14;21.70;99.90
31309;DHT22;17936;52.446;10.840;2022-10-30T14:48:52;21.70;99.90
31309;DHT22;17936;52.446;10.840;2022-10-30T14:51:33;21.80;99.90
31309;DHT22;17936;52.446;10.840;2022-10-30T14:54:21;21.60;99.90
31309;DHT22;17936;52.446;10.840;2022-10-30T14:56:51;21.60;99.90
31309;DHT22;17936;52.446;10.840;2022-10-30T15:02:02;21.40;99.90
31309;DHT22;17936;52.446;10.840;2022-10-30T15:07:23;21.10;99.90
31309;DHT22;17936;52.446;10.840;2022-10-30T15:10:13;20.80;99.90
31309;DHT22;17936;52.446;10.840;2022-10-30T15:15:21;20.10;99.90
31309;DHT22;17936;52.446;10.840;2022-10-30T15:17:50;19.80;99.90
31309;DHT22;17936;52.446;10.840;2022-10-30T15:20:20;19.40;99.90
31309;DHT22;17936;52.446;10.840;2022-10-30T15:22:49;19.30;99.90
31309;DHT22;17936;52.446;10.840;2022-10-30T15:25:19;19.10;99.90
31309;DHT22;17936;52.446;10.840;2022-10-30T15:27:46;19.00;99.90
31309;DHT22;17936;52.446;10.840;2022-10-30T15:30:21;18.80;99.90
31309;DHT22;17936;52.446;10.840;2022-10-30T15:32:47;18.60;99.90
31309;DHT22;17936;52.446;10.840;2022-10-30T15:35:21;18.50;99.90
31309;DHT22;17936;52.446;10.840;2022-10-30T15:38:00;18.80;99.90
31309;DHT22;17936;52.446;10.840;2022-10-30T15:40:27;18.60;99.90
31309;DHT22;17936;52.446;10.840;2022-10-30T15:42:54;18.30;99.90
31309;DHT22;17936;52.446;10.840;2022-10-30T15:45:27;18.10;99.90
31309;DHT22;17936;52.446;10.840;2022-10-30T15:48:03;18.10;99.90
31309;DHT22;17936;52.446;10.840;2022-10-30T15:50:29;18.20;99.90
31309;DHT22;17936;52.446;10.840;2022-10-30T15:52:55;18.30;99.90
31309;DHT22;17936;52.446;10.840;2022-10-30T15:55:28;18.40;99.90
31309;DHT22;17936;52.446;10.840;2022-10-30T15:57:57;18.00;99.90
31309;DHT22;17936;52.446;10.840;2022-10-30T16:00:30;18.00;99.90
31309;DHT22;17936;52.446;10.840;2022-10-30T16:05:36;17.60;99.90
31309;DHT22;17936;52.446;10.840;2022-10-30T16:08:03;17.50;99.90
31309;DHT22;17936;52.446;10.840;2022-10-30T16:10:34;17.50;99.90
31309;DHT22;17936;52.446;10.840;2022-10-30T16:13:01;17.20;99.90
31309;DHT22;17936;52.446;10.840;2022-10-30T16:15:32;17.00;85.60
31309;DHT22;17936;52.446;10.840;2022-10-30T16:18:18;17.00;83.50
31309;DHT22;17936;52.446;10.840;2022-10-30T16:20:49;17.00;99.90
31309;DHT22;17936;52.446;10.840;2022-10-30T16:23:16;17.30;99.90
31309;DHT22;17936;52.446;10.840;2022-10-30T16:25:44;17.30;99.90
31309;DHT22;17936;52.446;10.840;2022-10-30T16:30:49;16.80;88.80
31309;DHT22;17936;52.446;10.840;2022-10-30T16:33:25;16.70;90.60
31309;DHT22;17936;52.446;10.840;2022-10-30T16:35:52;16.80;99.90
31309;DHT22;17936;52.446;10.840;2022-10-30T16:38:19;16.50;97.40
31309;DHT22;17936;52.446;10.840;2022-10-30T16:40:45;16.50;97.60
31309;DHT22;17936;52.446;10.840;2022-10-30T16:43:27;16.40;99.90